Flight Track Log - Related Links

Times and Time Zones

All times are in EDT time to prevent confusion due to time zone crossing. See the DAL374 flight status page for this flight to view local times or setup timezone preferences in your user account.

Time Position Orientation Groundspeed Altitude Reporting Facility
EDT Latitude Longitude Course Direction KTS MPH feet Rate Location/Type
Mon 03:01:00 PM 13.8215 -89.0800 356° North  Level FlightAware Approximate
Mon 03:02:00 PM 13.9484 -89.0881 356° North  Level FlightAware Approximate
Mon 03:03:00 PM 14.0752 -89.0962 356° North  Level FlightAware Approximate
Mon 03:04:00 PM 14.2021 -89.1044 356° North  Level FlightAware Approximate
Mon 03:05:00 PM 14.3289 -89.1125 356° North  Level FlightAware Approximate
Mon 03:06:00 PM 14.4558 -89.1207 356° North  Level FlightAware Approximate
Mon 03:07:00 PM 14.5826 -89.1288 356° North  Level FlightAware Approximate
Mon 03:08:00 PM 14.7095 -89.1370 356° North  Level FlightAware Approximate
Mon 03:09:00 PM 14.8363 -89.1452 356° North  Level FlightAware Approximate
Mon 03:10:00 PM 14.9632 -89.1533 356° North  Level FlightAware Approximate
Mon 03:11:00 PM 15.0900 -89.1615 356° North  Level FlightAware Approximate
Mon 03:12:00 PM 15.2169 -89.1697 356° North  Level FlightAware Approximate
Mon 03:13:00 PM 15.3437 -89.1780 356° North  Level FlightAware Approximate
Mon 03:14:00 PM 15.4706 -89.1862 356° North  Level FlightAware Approximate
Mon 03:15:00 PM 15.5947 -89.1577 356° North  Level Estimated
Mon 03:16:00 PM 15.7212 -89.1696 355° North  Level FlightAware Approximate
Mon 03:17:00 PM 15.8478 -89.1815 355° North  Level FlightAware Approximate
Mon 03:18:00 PM 15.9744 -89.1934 355° North  Level FlightAware Approximate
Mon 03:19:00 PM 16.1010 -89.2053 355° North  Level FlightAware Approximate
Mon 03:20:00 PM 16.2276 -89.2172 355° North  Level FlightAware Approximate
Mon 03:21:00 PM 16.3541 -89.2291 355° North  Level FlightAware Approximate
Mon 03:22:00 PM 16.4807 -89.2411 355° North  Level FlightAware Approximate
Mon 03:23:00 PM 16.6073 -89.2531 355° North  Level FlightAware Approximate
Mon 03:24:00 PM 16.7339 -89.2651 355° North  Level FlightAware Approximate
Mon 03:25:00 PM 16.8605 -89.2771 355° North  Level FlightAware Approximate
Mon 03:26:00 PM 16.9870 -89.2891 355° North  Level FlightAware Approximate
Mon 03:27:00 PM 17.1136 -89.3011 355° North  Level FlightAware Approximate
Mon 03:28:00 PM 17.2402 -89.3132 355° North  Level FlightAware Approximate
Mon 03:29:00 PM 17.3654 -89.3251 355° North  Level FlightAware Approximate
Mon 03:30:00 PM 17.4905 -89.3370 355° North  Level FlightAware Approximate
Mon 03:31:00 PM 17.6123 -89.3044 356° North  Level Estimated
Mon 03:32:00 PM 17.7375 -89.3158 355° North  Level FlightAware Approximate
Mon 03:33:00 PM 17.8627 -89.3271 355° North  Level FlightAware Approximate
Mon 03:34:00 PM 17.9879 -89.3385 355° North  Level FlightAware Approximate
Mon 03:35:00 PM 18.1131 -89.3499 355° North  Level FlightAware Approximate
Mon 03:36:00 PM 18.2383 -89.3613 355° North  Level FlightAware Approximate
Mon 03:37:00 PM 18.3635 -89.3727 355° North  Level FlightAware Approximate
Mon 03:38:00 PM 18.4888 -89.3841 355° North  Level FlightAware Approximate
Mon 03:39:00 PM 18.6140 -89.3956 355° North  Level FlightAware Approximate
Mon 03:40:00 PM 18.7392 -89.4071 355° North  Level FlightAware Approximate
Mon 03:41:00 PM 18.8644 -89.4185 355° North  Level FlightAware Approximate
Mon 03:42:00 PM 18.9896 -89.4301 355° North  Level FlightAware Approximate
Mon 03:43:00 PM 19.1148 -89.4416 355° North  Level FlightAware Approximate
Mon 03:44:00 PM 19.2400 -89.4531 355° North  Level FlightAware Approximate
Mon 03:45:00 PM 19.3652 -89.4647 355° North  Level FlightAware Approximate
Mon 03:46:00 PM 19.4904 -89.4762 355° North  Level FlightAware Approximate
Mon 03:47:00 PM 19.6156 -89.4878 355° North  Level FlightAware Approximate
Mon 03:48:00 PM 19.7408 -89.4995 355° North  Level FlightAware Approximate
Mon 03:49:00 PM 19.8660 -89.5111 355° North  Level FlightAware Approximate
Mon 03:50:00 PM 19.9912 -89.5227 355° North  Level FlightAware Approximate
Mon 03:51:00 PM 20.1164 -89.5344 355° North  Level FlightAware Approximate
Mon 03:52:00 PM 20.2416 -89.5461 355° North  Level FlightAware Approximate
Mon 03:53:00 PM 20.3668 -89.5578 355° North  Level FlightAware Approximate
Mon 03:54:00 PM 20.4920 -89.5695 355° North  Level FlightAware Approximate
Mon 03:55:00 PM 20.6115 -89.5278 356° North  Level Estimated
Mon 03:56:00 PM 20.7361 -89.5447 353° North  Level FlightAware Approximate
Mon 03:57:00 PM 20.8608 -89.5615 353° North  Level FlightAware Approximate
Mon 03:58:00 PM 20.9855 -89.5784 353° North  Level FlightAware Approximate
Mon 03:59:00 PM 21.1102 -89.5954 353° North  Level FlightAware Approximate
Mon 04:00:00 PM 21.2349 -89.6123 353° North  Level FlightAware Approximate
Mon 04:01:00 PM 21.3595 -89.6293 353° North  Level FlightAware Approximate
Mon 04:02:00 PM 21.4781 -89.5843 356° North  Level Estimated
Mon 04:03:00 PM 21.6021 -89.6060 351° North  Level FlightAware Approximate
Mon 04:04:00 PM 21.7262 -89.6276 351° North  Level FlightAware Approximate
Mon 04:05:00 PM 21.8502 -89.6494 351° North  Level FlightAware Approximate
Mon 04:06:00 PM 21.9743 -89.6711 351° North  Level FlightAware Approximate
Mon 04:07:00 PM 22.0920 -89.6236 358° North  Level Estimated
Mon 04:08:00 PM 22.2157 -89.6471 350° North  Level FlightAware Approximate
Mon 04:09:00 PM 22.3395 -89.6708 350° North  Level FlightAware Approximate
Mon 04:10:00 PM 22.4568 -89.6218 357° North  Level Estimated
Mon 04:11:00 PM 22.5808 -89.6434 351° North  Level FlightAware Approximate
Mon 04:12:00 PM 22.7049 -89.6651 351° North  Level FlightAware Approximate
Mon 04:13:00 PM 22.8290 -89.6868 351° North  Level FlightAware Approximate
Mon 04:14:00 PM 22.9531 -89.7086 351° North  Level FlightAware Approximate
Mon 04:15:00 PM 23.0693 -89.6567 357° North  Level Estimated
Mon 04:16:00 PM 23.1935 -89.6780 351° North  Level FlightAware Approximate
Mon 04:17:00 PM 23.3176 -89.6994 351° North  Level FlightAware Approximate
Mon 04:18:00 PM 23.4417 -89.7207 351° North  Level FlightAware Approximate
Mon 04:19:00 PM 23.5659 -89.7421 351° North  Level FlightAware Approximate
Mon 04:20:00 PM 23.6810 -89.6872 357° North  Level Estimated
Mon 04:21:00 PM 23.8050 -89.7096 351° North  Level FlightAware Approximate
Mon 04:22:00 PM 23.9289 -89.7321 351° North  Level FlightAware Approximate
Mon 04:23:00 PM 24.0529 -89.7547 351° North  Level FlightAware Approximate
Mon 04:24:00 PM 24.1769 -89.7773 351° North  Level FlightAware Approximate
Mon 04:25:00 PM 24.2907 -89.7188 357° North  Level Estimated
Mon 04:26:00 PM 24.4158 -89.7317 355° North  Level FlightAware Approximate
Mon 04:27:00 PM 24.5410 -89.7445 355° North  Level FlightAware Approximate
Mon 04:28:00 PM 24.6661 -89.7574 355° North  Level FlightAware Approximate
Mon 04:29:00 PM 24.7912 -89.7703 355° North  Level FlightAware Approximate
Mon 04:30:00 PM 24.9164 -89.7832 355° North  Level FlightAware Approximate
Mon 04:31:00 PM 25.0415 -89.7962 355° North  Level FlightAware Approximate
Mon 04:32:00 PM 25.1666 -89.8092 355° North  Level FlightAware Approximate
Mon 04:33:00 PM 25.2917 -89.8222 355° North  Level FlightAware Approximate
Mon 04:34:00 PM 25.4169 -89.8352 355° North  Level FlightAware Approximate
Mon 04:35:00 PM 25.5420 -89.8483 355° North  Level FlightAware Approximate
Mon 04:36:00 PM 25.6661 -89.8613 355° North  Level FlightAware Approximate
Mon 04:37:00 PM 25.7902 -89.8743 355° North  Level FlightAware Approximate
Mon 04:38:00 PM 25.9143 -89.8873 355° North  Level FlightAware Approximate
Mon 04:39:00 PM 26.0385 -89.9004 355° North  Level FlightAware Approximate
Mon 04:40:00 PM 26.1626 -89.9135 355° North  Level FlightAware Approximate
Mon 04:41:00 PM 26.2867 -89.9266 355° North  Level FlightAware Approximate
Mon 04:42:00 PM 26.4118 -89.9371 357° North  Level FlightAware Approximate
Mon 04:43:00 PM 26.5363 -89.9446 357° North  Level FlightAware Approximate
Mon 04:44:00 PM 26.6608 -89.9521 357° North  Level FlightAware Approximate
Mon 04:45:00 PM 26.7853 -89.9597 357° North  Level FlightAware Approximate
Mon 04:46:00 PM 26.9098 -89.9673 357° North  Level FlightAware Approximate
Mon 04:47:00 PM 27.0343 -89.9749 357° North  Level FlightAware Approximate
Mon 04:47:43 PM 26.9231 -89.9775 357° North 484 557 36,000  Level Houston Center
Mon 04:48:00 PM 27.1588 -89.9825 357° North  Level FlightAware Approximate
Mon 04:48:45 PM 27.0564 -89.9881 356° North 482 555 35,900  Level Houston Center
Mon 04:49:00 PM 27.2832 -89.9901 357° North  Level FlightAware Approximate
Mon 04:49:47 PM 27.1908 -89.9981 356° North 482 555 35,900  Level Houston Center
Mon 04:50:00 PM 27.4077 -89.9978 357° North  Level FlightAware Approximate
Mon 04:50:50 PM 27.3525 -90.0061 357° North 483 556 35,900  Level Houston Center
Mon 04:51:00 PM 27.5322 -90.0054 357° North  Level FlightAware Approximate
Mon 04:51:52 PM 27.4869 -90.0142 357° North 483 556 36,000  Level Houston Center
Mon 04:52:00 PM 27.6567 -90.0131 357° North  Level FlightAware Approximate
Mon 04:52:54 PM 27.6239 -90.0206 358° North 488 562 36,500  Level Houston Center
Mon 04:53:00 PM 27.7812 -90.0208 357° North  Level FlightAware Approximate
Mon 04:53:56 PM 27.7567 -89.9633 21° North 500 575 37,000  Level Houston Center
Mon 04:54:58 PM 27.8903 -89.9086 20° North 512 589 37,000  Level Houston Center
Mon 04:56:00 PM 28.0219 -89.8500 21° North 510 587 37,000  Level Houston Center
Mon 04:57:02 PM 28.1803 -89.7775 22° Northeast 512 589 37,000  Level Houston Center
Mon 04:58:04 PM 28.3136 -89.7197 21° North 511 588 37,000  Level Houston Center
Mon 04:59:06 PM 28.4464 -89.6628 21° North 511 588 37,000  Level Houston Center
Mon 05:00:08 PM 28.5789 -89.6061 21° North 507 583 37,000 -48 Level Houston Center
Mon 05:01:10 PM 28.7106 -89.5483 21° North 507 583 36,900 -48 Descending Houston Center
Mon 05:02:12 PM 28.8681 -89.4792 21° North 505 581 36,900 48 Level Houston Center
Mon 05:03:14 PM 28.9997 -89.4236 20° North 506 582 37,000 48 Climbing Houston Center
Mon 05:04:16 PM 29.1311 -89.3658 21° North 505 581 37,000  Level Houston Center
Mon 05:05:18 PM 29.2636 -89.3069 21° North 509 586 37,000  Level Houston Center
Mon 05:06:21 PM 29.3969 -89.2489 21° North 513 590 37,000  Level Houston Center
Mon 05:07:23 PM 29.5281 -89.1906 21° North 508 585 37,000  Level Houston Center
Mon 05:08:25 PM 29.6867 -89.1203 21° North 510 587 37,000  Level Houston Center
Mon 05:09:27 PM 29.8214 -89.0600 21° North 519 597 37,000  Level Houston Center
Mon 05:10:29 PM 29.9533 -89.0011 21° North 514 592 37,000  Level Houston Center
Mon 05:11:31 PM 30.0833 -88.9422 21° North 506 582 37,000  Level Houston Center
Mon 05:12:33 PM 30.2236 -88.8419 32° Northeast 518 596 37,000  Level Houston Center
Mon 05:13:35 PM 30.3461 -88.7483 33° Northeast 525 604 37,000  Level Houston Center
Mon 05:14:37 PM 30.4675 -88.6567 33° Northeast 522 601 37,000  Level Houston Center
Mon 05:15:39 PM 30.5894 -88.5639 33° Northeast 524 603 37,000  Level Houston Center
Mon 05:16:42 PM 30.7153 -88.4664 34° Northeast 525 604 37,000  Level Houston Center
Mon 05:17:44 PM 30.8369 -88.3733 33° Northeast 524 603 37,000  Level Houston Center
Mon 05:18:46 PM 30.9803 -88.2500 36° Northeast 547 629 37,000  Level Houston Center
Mon 05:19:48 PM 31.0786 -88.1119 50° Northeast 557 641 37,000  Level Houston Center
Mon 05:20:50 PM 31.1756 -87.9747 50° Northeast 549 632 37,000  Level Houston Center
Mon 05:21:52 PM 31.2794 -87.8250 51° Northeast 547 629 37,000  Level Houston Center
Mon 05:22:54 PM 31.3761 -87.6867 51° Northeast 548 631 37,000 -97 Level Houston Center
Mon 05:23:56 PM 31.4736 -87.5472 51° Northeast 552 635 36,800 -581 Descending Houston Center
Mon 05:24:58 PM 31.5694 -87.4075 51° Northeast 552 635 35,800 -968 Descending Houston Center
Mon 05:26:00 PM 31.6642 -87.2686 51° Northeast 548 631 34,800 -1,016 Descending Houston Center
Mon 05:27:02 PM 31.7753 -87.1072 51° Northeast 531 611 33,700 -1,008 Descending Houston Center
Mon 05:28:05 PM 31.8683 -86.9731 51° Northeast 529 609 32,700 -960 Descending Houston Center
Mon 05:29:07 PM 31.9603 -86.8350 52° Northeast 536 617 31,700 -968 Descending Houston Center
Mon 05:30:09 PM 32.0542 -86.6997 51° Northeast 535 616 30,700 -985 Descending Houston Center
Mon 05:31:21 PM 32.1700 -86.5392 50° Northeast 534 615 29,500 -1,000 Descending Atlanta Center
Mon 05:32:21 PM 32.2644 -86.4042 50° Northeast 534 615 28,500 -950 Descending Atlanta Center
Mon 05:33:21 PM 32.3486 -86.2639 55° Northeast 529 609 27,600 -950 Descending Atlanta Center
Mon 05:34:21 PM 32.4364 -86.1308 52° Northeast 522 601 26,600 -1,400 Descending Atlanta Center
Mon 05:35:21 PM 32.5286 -85.9925 52° Northeast 522 601 24,800 -2,550 Descending Atlanta Center
Mon 05:36:21 PM 32.6203 -85.8564 51° Northeast 528 608 21,500 -2,150 Descending Atlanta Center
Mon 05:37:21 PM 32.7078 -85.7250 52° Northeast 523 602 20,500 -1,200 Descending Atlanta Center
Mon 05:38:21 PM 32.7931 -85.5981 51° Northeast 506 582 19,100 -1,600 Descending Atlanta Center
Mon 05:39:21 PM 32.8675 -85.4806 53° Northeast 474 545 17,300 -1,900 Descending Atlanta Center
Mon 05:40:21 PM 32.9397 -85.3731 51° Northeast 438 504 15,300 -1,650 Descending Atlanta Center
Mon 05:41:21 PM 33.0139 -85.2650 51° Northeast 418 481 14,000 -650 Descending Atlanta Center
Mon 05:42:21 PM 33.0900 -85.1594 49° Northeast 421 484 14,000  Level Atlanta Center
Mon 05:43:21 PM 33.1808 -85.0392 48° Northeast 433 498 14,000 -50 Level Atlanta Center
Mon 05:44:21 PM 33.2608 -84.9331 48° Northeast 433 498 13,900 -850 Descending Atlanta Center
Mon 05:45:21 PM 33.3344 -84.8369 47° Northeast 416 479 12,300 -950 Descending Atlanta Center
Mon 05:46:21 PM 33.4269 -84.7656 33° Northeast 394 453 12,000 -150 Descending Atlanta Center
Mon 05:47:21 PM 33.5253 -84.7092 26° Northeast 394 453 12,000  Level Atlanta Center
Mon 05:48:20 PM 33.6333 -84.6333 30° Northeast 428 493 12,000  Level Atlanta TRACON
Mon 05:49:20 PM 33.6833 -84.5500 54° Northeast 365 420 12,000 -800 Level Atlanta TRACON
Mon 05:50:20 PM 33.7333 -84.4500 59° Northeast 320 368 10,400 -1,800 Descending Atlanta TRACON
Mon 05:51:20 PM 33.7333 -84.3500 90° East 297 342 8,400 -2,200 Descending Atlanta TRACON
Mon 05:52:20 PM 33.7333 -84.2500 90° East 283 326 6,000 -2,316 Descending Atlanta TRACON
Mon 05:53:14 PM 33.6833 -84.2167 151° Southeast 274 315 4,000 -1,500 Descending Atlanta TRACON
Mon 05:54:20 PM 33.6500 -84.2667 231° Southwest 213 245 3,000 -857 Descending Atlanta TRACON
Mon 05:55:20 PM 33.6500 -84.3333 270° West 177 204 2,200 -789 Descending Atlanta TRACON
Mon 05:56:14 PM 33.6500 -84.3833 270° West 138 159 1,500 -778 Descending Atlanta TRACON

Login

Don't have an account? Register now (free) for customized features, flight alerts, and more!